createdAt,value
2023-04-02T00:00:10.950Z,4.97
2023-04-02T00:02:57.865Z,5.20
2023-04-02T00:05:26.096Z,4.50
2023-04-02T00:10:30.309Z,3.33
2023-04-02T00:13:17.654Z,5.13
2023-04-02T00:15:45.900Z,3.25
2023-04-02T00:20:42.161Z,3.67
2023-04-02T00:23:11.505Z,3.42
2023-04-02T00:25:43.260Z,5.50
2023-04-02T00:28:18.043Z,5.30
2023-04-02T00:30:52.576Z,3.92
2023-04-02T00:33:21.326Z,3.58
2023-04-02T00:35:48.992Z,2.90
2023-04-02T00:38:19.705Z,3.15
2023-04-02T00:40:46.383Z,3.58
2023-04-02T00:43:16.866Z,4.90
2023-04-02T00:45:50.872Z,7.53
2023-04-02T00:48:30.929Z,3.75
2023-04-02T00:50:59.632Z,3.72
2023-04-02T00:53:28.635Z,2.70
2023-04-02T00:55:56.196Z,4.75
2023-04-02T00:58:31.933Z,4.07
2023-04-02T01:00:58.976Z,4.22
2023-04-02T01:03:29.119Z,3.42
2023-04-02T01:06:04.756Z,4.95
2023-04-02T01:08:41.844Z,3.30
2023-04-02T01:11:27.186Z,6.65
2023-04-02T01:13:53.647Z,5.32
2023-04-02T01:16:33.118Z,3.17
2023-04-02T01:19:13.815Z,4.53
2023-04-02T01:21:54.042Z,7.07
2023-04-02T01:24:21.118Z,3.92
2023-04-02T01:27:05.461Z,5.88
2023-04-02T01:29:34.320Z,4.32
2023-04-02T01:32:02.746Z,4.88
2023-04-02T01:34:31.055Z,8.20
2023-04-02T01:37:27.457Z,4.13
2023-04-02T01:40:13.089Z,3.83
2023-04-02T01:42:39.834Z,2.33
2023-04-02T01:45:11.280Z,1.92
2023-04-02T01:47:38.902Z,2.05
2023-04-02T01:50:16.762Z,2.50
2023-04-02T01:52:44.757Z,2.85
2023-04-02T01:55:13.238Z,2.92
2023-04-02T01:57:43.438Z,2.05
2023-04-02T02:00:14.905Z,3.30
2023-04-02T02:02:42.416Z,2.72
2023-04-02T02:05:16.410Z,4.15
2023-04-02T02:07:43.583Z,3.33
2023-04-02T02:10:15.059Z,2.72
2023-04-02T02:12:42.918Z,2.67
2023-04-02T02:15:20.056Z,7.85
2023-04-02T02:17:46.662Z,5.28
2023-04-02T02:20:13.725Z,17.92
2023-04-02T02:22:42.895Z,17.48
2023-04-02T02:25:15.832Z,19.15
2023-04-02T02:27:45.516Z,19.25
2023-04-02T02:30:32.322Z,12.57
2023-04-02T02:33:18.076Z,14.82
2023-04-02T02:35:53.918Z,18.52
2023-04-02T02:38:21.050Z,15.18
2023-04-02T02:40:48.326Z,13.98
2023-04-02T02:43:15.076Z,10.37
2023-04-02T02:45:42.978Z,11.57
2023-04-02T02:48:12.613Z,6.15
2023-04-02T02:50:39.952Z,7.10
2023-04-02T02:53:16.122Z,4.50
2023-04-02T02:55:42.768Z,6.57
2023-04-02T02:58:11.821Z,4.68
2023-04-02T03:00:39.412Z,4.50
2023-04-02T03:03:08.288Z,4.75
2023-04-02T03:05:35.686Z,4.28
2023-04-02T03:08:03.872Z,10.50
2023-04-02T03:10:30.401Z,18.92
2023-04-02T03:13:05.244Z,14.30
2023-04-02T03:15:44.000Z,9.30
2023-04-02T03:18:39.931Z,7.22
2023-04-02T03:21:22.381Z,9.95
2023-04-02T03:23:57.595Z,9.98
2023-04-02T03:26:34.204Z,6.93
2023-04-02T03:29:07.646Z,3.58
2023-04-02T03:31:44.481Z,3.35
2023-04-02T03:34:18.637Z,6.03
2023-04-02T03:36:46.743Z,2.95
2023-04-02T03:39:16.418Z,2.75
2023-04-02T03:41:45.453Z,3.58
2023-04-02T03:44:18.387Z,4.55
2023-04-02T03:46:46.513Z,9.35
2023-04-02T03:49:33.324Z,3.17
2023-04-02T03:52:05.969Z,5.70
2023-04-02T03:54:32.792Z,3.85
2023-04-02T03:56:59.532Z,4.00
2023-04-02T03:59:32.374Z,3.95
2023-04-02T04:02:01.371Z,3.17
2023-04-02T04:04:28.940Z,3.72
2023-04-02T04:06:56.388Z,2.50
2023-04-02T04:09:29.419Z,1.80
2023-04-02T04:12:02.599Z,3.03
2023-04-02T04:14:31.516Z,3.17
2023-04-02T04:17:16.665Z,3.90
2023-04-02T04:19:48.421Z,2.47
2023-04-02T04:22:20.076Z,5.90
2023-04-02T04:24:47.259Z,3.63
2023-04-02T04:27:21.682Z,6.95
2023-04-02T04:29:52.167Z,4.32
2023-04-02T04:32:27.334Z,2.55
2023-04-02T04:35:01.205Z,3.10
2023-04-02T04:37:33.827Z,2.78
2023-04-02T04:40:04.185Z,3.97
2023-04-02T04:42:31.985Z,8.27
2023-04-02T04:45:24.005Z,8.27
2023-04-02T04:48:04.959Z,11.45
2023-04-02T04:50:31.496Z,3.60
2023-04-02T04:53:04.700Z,4.75
2023-04-02T04:55:37.193Z,3.72
2023-04-02T04:58:24.254Z,4.45
2023-04-02T05:00:53.779Z,3.55
2023-04-02T05:03:30.268Z,4.18
2023-04-02T05:06:08.941Z,2.60
2023-04-02T05:08:37.815Z,2.00
2023-04-02T05:11:13.895Z,3.28
2023-04-02T05:13:43.511Z,3.50
2023-04-02T05:16:10.129Z,4.50
2023-04-02T05:18:40.154Z,5.82
2023-04-02T05:21:16.655Z,3.58
2023-04-02T05:23:49.402Z,2.78
2023-04-02T05:26:18.919Z,4.93
2023-04-02T05:28:48.542Z,2.13
2023-04-02T05:31:17.765Z,4.68
2023-04-02T05:33:46.088Z,25.42
2023-04-02T05:36:18.369Z,29.27
2023-04-02T05:38:46.522Z,49.40
2023-04-02T05:41:16.082Z,34.88
2023-04-02T05:43:46.286Z,63.83
2023-04-02T05:46:22.593Z,43.35
2023-04-02T05:48:51.989Z,40.40
2023-04-02T05:51:38.731Z,11.98
2023-04-02T05:54:06.736Z,9.02
2023-04-02T05:56:43.224Z,17.05
2023-04-02T05:59:12.727Z,11.77
2023-04-02T06:01:56.062Z,10.25
2023-04-02T06:04:41.399Z,8.13
2023-04-02T06:07:32.157Z,3.75
2023-04-02T06:10:03.545Z,3.30
2023-04-02T06:12:33.373Z,5.43
2023-04-02T06:14:59.896Z,3.70
2023-04-02T06:17:27.450Z,2.85
2023-04-02T06:19:55.762Z,5.63
2023-04-02T06:24:50.597Z,5.63
2023-04-02T06:27:20.129Z,3.40
2023-04-02T06:29:47.830Z,2.88
2023-04-02T06:32:14.331Z,2.55
2023-04-02T06:34:41.696Z,6.22
2023-04-02T06:37:34.455Z,4.10
2023-04-02T06:40:01.483Z,8.55
2023-04-02T06:42:33.833Z,3.60
2023-04-02T06:45:00.456Z,7.28
2023-04-02T06:47:33.167Z,7.00
2023-04-02T06:50:16.983Z,5.32
2023-04-02T06:52:45.926Z,5.22
2023-04-02T06:55:24.890Z,4.70
2023-04-02T07:00:36.241Z,6.07
2023-04-02T07:03:05.736Z,7.35
2023-04-02T07:05:32.255Z,7.35
2023-04-02T07:07:58.899Z,7.15
2023-04-02T07:10:25.423Z,4.75
2023-04-02T07:12:51.964Z,2.92
2023-04-02T07:15:23.988Z,2.33
2023-04-02T07:17:52.323Z,1.80
2023-04-02T07:20:24.722Z,7.85
2023-04-02T07:22:51.592Z,4.13
2023-04-02T07:25:18.126Z,1.88
2023-04-02T07:27:44.638Z,3.00
2023-04-02T07:30:11.382Z,2.78
2023-04-02T07:32:38.468Z,2.10
2023-04-02T07:35:05.719Z,1.80
2023-04-02T07:37:32.274Z,4.00
2023-04-02T07:39:58.766Z,2.33
2023-04-02T07:42:25.372Z,3.25
2023-04-02T07:44:51.889Z,1.52
2023-04-02T07:47:18.360Z,3.53
2023-04-02T07:49:44.890Z,1.85
2023-04-02T07:52:11.917Z,3.70
2023-04-02T07:54:38.483Z,1.45
2023-04-02T07:57:05.219Z,6.97
2023-04-02T07:59:31.909Z,1.45
2023-04-02T08:01:58.885Z,1.60
2023-04-02T08:04:27.052Z,1.55
2023-04-02T08:09:19.977Z,1.02
2023-04-02T08:11:46.699Z,3.95
2023-04-02T08:14:13.509Z,1.88
2023-04-02T08:16:50.650Z,1.63
2023-04-02T08:19:17.308Z,0.73
2023-04-02T08:21:43.820Z,1.33
2023-04-02T08:24:10.373Z,1.90
2023-04-02T08:26:37.403Z,2.38
2023-04-02T08:29:04.291Z,2.90
2023-04-02T08:31:30.942Z,4.32
2023-04-02T08:33:57.577Z,1.17
2023-04-02T08:36:29.295Z,1.25
2023-04-02T08:38:56.675Z,0.43
2023-04-02T08:41:27.909Z,1.30
2023-04-02T08:44:13.410Z,1.00
2023-04-02T08:46:39.880Z,1.30
2023-04-02T08:49:12.632Z,1.17
2023-04-02T08:51:39.165Z,1.50
2023-04-02T08:54:12.113Z,1.25
2023-04-02T08:56:38.959Z,2.67
2023-04-02T08:59:17.710Z,5.43
2023-04-02T09:01:54.280Z,7.47
2023-04-02T09:04:22.845Z,1.42
2023-04-02T09:06:49.915Z,2.05
2023-04-02T09:09:16.881Z,2.17
2023-04-02T09:11:49.257Z,3.08
2023-04-02T09:14:20.560Z,1.58
2023-04-02T09:16:47.055Z,1.35
2023-04-02T09:19:18.608Z,3.35
2023-04-02T09:22:04.068Z,1.85
2023-04-02T09:24:30.641Z,0.93
2023-04-02T09:26:57.191Z,1.20
2023-04-02T09:29:35.501Z,1.48
2023-04-02T09:32:12.304Z,1.65
2023-04-02T09:34:38.873Z,1.05
2023-04-02T09:37:14.114Z,1.80
2023-04-02T09:39:41.125Z,0.90
2023-04-02T09:42:08.296Z,1.17
2023-04-02T09:44:35.150Z,1.58
2023-04-02T09:47:05.745Z,1.88
2023-04-02T09:49:36.802Z,3.63
2023-04-02T09:52:21.822Z,1.25
2023-04-02T09:55:07.020Z,2.15
2023-04-02T09:57:33.632Z,2.28
2023-04-02T10:00:12.315Z,1.55
2023-04-02T10:02:46.656Z,0.95
2023-04-02T10:05:39.511Z,0.60
2023-04-02T10:08:10.096Z,1.73
2023-04-02T10:10:39.750Z,4.10
2023-04-02T10:13:09.100Z,0.50
2023-04-02T10:15:40.570Z,2.70
2023-04-02T10:18:13.333Z,4.30
2023-04-02T10:20:50.408Z,7.68
2023-04-02T10:23:17.809Z,3.55
2023-04-02T10:26:08.225Z,4.03
2023-04-02T10:28:50.192Z,2.38
2023-04-02T10:31:25.541Z,2.65
2023-04-02T10:33:56.060Z,4.65
2023-04-02T10:36:44.955Z,5.28
2023-04-02T10:39:32.550Z,1.55
2023-04-02T10:42:19.938Z,1.95
2023-04-02T10:44:55.931Z,1.30
2023-04-02T10:47:22.545Z,2.40
2023-04-02T10:49:52.151Z,1.15
2023-04-02T10:52:26.925Z,1.80
2023-04-02T10:55:05.245Z,0.70
2023-04-02T10:57:35.284Z,0.38
2023-04-02T11:00:16.663Z,1.20
2023-04-02T11:02:43.324Z,0.70
2023-04-02T11:05:44.132Z,1.50
2023-04-02T11:08:31.282Z,3.22
2023-04-02T11:11:21.541Z,2.25
2023-04-02T11:13:52.650Z,3.60
2023-04-02T11:16:19.258Z,2.58
2023-04-02T11:19:04.700Z,2.40
2023-04-02T11:21:58.511Z,2.03
2023-04-02T11:24:37.371Z,2.45
2023-04-02T11:27:05.715Z,1.00
2023-04-02T11:29:34.575Z,0.90
2023-04-02T11:32:19.827Z,0.73
2023-04-02T11:35:06.645Z,6.82
2023-04-02T11:37:33.902Z,3.88
2023-04-02T11:40:20.741Z,2.97
2023-04-02T11:42:48.756Z,3.63
2023-04-02T11:45:21.620Z,2.95
2023-04-02T11:48:00.969Z,1.05
2023-04-02T11:50:27.828Z,1.50
2023-04-02T11:52:54.603Z,0.85
2023-04-02T11:55:27.448Z,1.73
2023-04-02T11:58:00.349Z,3.30
2023-04-02T12:00:37.724Z,1.38
2023-04-02T12:03:25.740Z,3.08
2023-04-02T12:05:58.946Z,1.30
2023-04-02T12:08:56.967Z,3.88
2023-04-02T12:11:37.900Z,2.10
2023-04-02T12:14:07.872Z,2.65
2023-04-02T12:16:35.240Z,5.55
2023-04-02T12:19:02.511Z,2.47
2023-04-02T12:21:29.466Z,3.93
2023-04-02T12:23:57.905Z,7.82
2023-04-02T12:26:26.397Z,2.63
2023-04-02T12:28:53.052Z,5.82
2023-04-02T12:31:21.765Z,2.70
2023-04-02T12:33:51.716Z,1.25
2023-04-02T12:36:19.818Z,4.53
2023-04-02T12:38:48.209Z,1.80
2023-04-02T12:41:27.170Z,53.60
2023-04-02T12:43:58.471Z,1.50
2023-04-02T12:46:26.128Z,1.85
2023-04-02T12:48:54.374Z,2.25
2023-04-02T12:51:21.000Z,3.42
2023-04-02T12:53:51.902Z,2.67
2023-04-02T12:56:21.770Z,4.30
2023-04-02T12:58:58.572Z,1.25
2023-04-02T13:01:28.338Z,2.05
2023-04-02T13:04:04.107Z,1.52
2023-04-02T13:06:31.085Z,3.13
2023-04-02T13:08:58.051Z,2.75
2023-04-02T13:11:33.662Z,1.83
2023-04-02T13:14:02.074Z,5.93
2023-04-02T13:16:39.140Z,8.23
2023-04-02T13:19:25.616Z,4.10
2023-04-02T13:21:53.143Z,6.75
2023-04-02T13:24:27.359Z,5.20
2023-04-02T13:26:55.506Z,4.88
2023-04-02T13:31:48.914Z,7.53
2023-04-02T13:34:15.510Z,6.25
2023-04-02T13:36:42.085Z,2.70
2023-04-02T13:39:08.606Z,7.22
2023-04-02T13:41:39.673Z,3.83
2023-04-02T13:44:06.354Z,14.70
2023-04-02T13:46:33.977Z,5.88
2023-04-02T13:49:00.662Z,3.10
2023-04-02T13:51:31.971Z,4.75
2023-04-02T13:53:58.526Z,3.85
2023-04-02T13:56:25.209Z,7.30
2023-04-02T13:58:52.309Z,9.70
2023-04-02T14:01:20.785Z,9.90
2023-04-02T14:03:47.379Z,3.95
2023-04-02T14:06:20.080Z,7.00
2023-04-02T14:08:46.552Z,4.43
2023-04-02T14:11:13.038Z,5.38
2023-04-02T14:13:48.753Z,4.72
2023-04-02T14:16:41.873Z,6.65
2023-04-02T14:19:11.424Z,7.03
2023-04-02T14:21:57.465Z,8.07
2023-04-02T14:24:42.852Z,7.97
2023-04-02T14:27:35.767Z,8.18
2023-04-02T14:30:08.749Z,5.38
2023-04-02T14:32:45.504Z,8.60
2023-04-02T14:35:12.022Z,7.75
2023-04-02T14:37:57.284Z,6.20
2023-04-02T14:40:23.798Z,9.15
2023-04-02T14:42:50.319Z,10.68
2023-04-02T14:45:19.915Z,8.98
2023-04-02T14:47:50.550Z,9.85
2023-04-02T14:50:19.556Z,26.42
2023-04-02T14:52:47.677Z,13.93
2023-04-02T14:57:42.889Z,16.77
2023-04-02T15:00:28.327Z,9.32
2023-04-02T15:03:13.806Z,6.38
2023-04-02T15:05:40.436Z,12.68
2023-04-02T15:08:27.320Z,13.95
2023-04-02T15:10:53.842Z,10.57
2023-04-02T15:13:22.903Z,11.25
2023-04-02T15:15:52.536Z,10.32
2023-04-02T15:18:19.150Z,8.15
2023-04-02T15:21:02.763Z,8.60
2023-04-02T15:23:29.375Z,15.57
2023-04-02T15:26:02.775Z,19.13
2023-04-02T15:28:32.485Z,16.23
2023-04-02T15:31:01.232Z,17.75
2023-04-02T15:33:34.983Z,16.30
2023-04-02T15:36:29.650Z,10.27
2023-04-02T15:39:02.346Z,12.10
2023-04-02T15:41:35.796Z,9.10
2023-04-02T15:44:06.552Z,6.53
2023-04-02T15:46:51.801Z,9.48
2023-04-02T15:49:37.370Z,9.32
2023-04-02T15:52:12.818Z,5.57
2023-04-02T15:54:58.180Z,4.68
2023-04-02T15:57:32.410Z,18.42
2023-04-02T16:00:15.423Z,9.93
2023-04-02T16:02:54.131Z,11.65
2023-04-02T16:05:36.788Z,12.75
2023-04-02T16:08:12.649Z,18.95
2023-04-02T16:10:42.945Z,9.23
2023-04-02T16:13:29.539Z,6.05
2023-04-02T16:15:56.118Z,10.48
2023-04-02T16:18:28.660Z,6.78
2023-04-02T16:20:57.254Z,10.05
2023-04-02T16:23:29.829Z,7.60
2023-04-02T16:26:15.080Z,10.55
2023-04-02T16:28:57.050Z,35.80
2023-04-02T16:31:32.850Z,12.10
2023-04-02T16:34:03.179Z,18.98
2023-04-02T16:36:56.055Z,22.30
2023-04-02T16:39:31.573Z,19.15
2023-04-02T16:42:07.381Z,9.05
2023-04-02T16:44:40.468Z,11.35
2023-04-02T16:47:19.470Z,9.27
2023-04-02T16:49:57.447Z,13.07
2023-04-02T16:52:39.176Z,10.30
2023-04-02T16:55:11.168Z,13.27
2023-04-02T16:58:04.473Z,13.52
2023-04-02T17:00:38.990Z,20.90
2023-04-02T17:03:05.681Z,21.08
2023-04-02T17:05:36.207Z,21.08
2023-04-02T17:08:08.788Z,23.63
2023-04-02T17:10:38.472Z,19.10
2023-04-02T17:13:18.115Z,20.10
2023-04-02T17:15:48.943Z,14.73
2023-04-02T17:18:24.827Z,7.50
2023-04-02T17:20:51.703Z,11.63
2023-04-02T17:23:19.275Z,15.85
2023-04-02T17:25:49.320Z,13.95
2023-04-02T17:28:18.689Z,10.93
2023-04-02T17:30:47.909Z,8.07
2023-04-02T17:33:16.563Z,10.60
2023-04-02T17:35:49.553Z,12.48
2023-04-02T17:38:31.346Z,24.98
2023-04-02T17:41:17.634Z,59.88
2023-04-02T17:43:56.396Z,46.53
2023-04-02T17:46:42.031Z,63.28
2023-04-02T17:49:17.073Z,82.75
2023-04-02T17:52:01.125Z,156.63
2023-04-02T17:54:31.633Z,185.82
2023-04-02T17:57:07.482Z,199.18
2023-04-02T17:59:40.161Z,36.63
2023-04-02T18:02:12.986Z,19.50
2023-04-02T18:04:57.699Z,9.48
2023-04-02T18:07:44.512Z,8.10
2023-04-02T18:10:30.020Z,23.15
2023-04-02T18:12:57.830Z,28.77
2023-04-02T18:15:39.959Z,29.10
2023-04-02T18:18:26.504Z,54.30
2023-04-02T18:20:53.021Z,20.08
2023-04-02T18:23:26.800Z,15.10
2023-04-02T18:26:17.020Z,19.27
2023-04-02T18:29:02.435Z,25.75
2023-04-02T18:31:46.506Z,13.60
2023-04-02T18:34:25.176Z,17.35
2023-04-02T18:37:10.495Z,11.77
2023-04-02T18:39:44.987Z,6.97
2023-04-02T18:42:18.879Z,13.82
2023-04-02T18:44:50.083Z,25.30
2023-04-02T18:47:25.486Z,18.00
2023-04-02T18:49:56.472Z,23.50
2023-04-02T18:52:25.079Z,48.08
2023-04-02T18:54:54.656Z,41.80
2023-04-02T18:57:30.100Z,46.83
2023-04-02T19:00:05.948Z,59.78
2023-04-02T19:02:39.476Z,48.60
2023-04-02T19:05:13.622Z,20.20
2023-04-02T19:07:42.616Z,24.20
2023-04-02T19:10:20.254Z,16.52
2023-04-02T19:12:46.864Z,18.92
2023-04-02T19:15:19.462Z,26.15
2023-04-02T19:17:49.269Z,18.38
2023-04-02T19:20:22.160Z,19.98
2023-04-02T19:22:48.665Z,19.25
2023-04-02T19:25:34.215Z,17.48
2023-04-02T19:28:04.093Z,18.33
2023-04-02T19:30:33.657Z,14.57
2023-04-02T19:33:16.818Z,16.60
2023-04-02T19:35:43.335Z,9.20
2023-04-02T19:38:13.002Z,13.80
2023-04-02T19:40:39.449Z,12.65
2023-04-02T19:43:06.961Z,19.15
2023-04-02T19:45:39.368Z,15.27
2023-04-02T19:48:24.625Z,19.73
2023-04-02T19:50:51.223Z,20.42
2023-04-02T19:53:18.164Z,19.00
2023-04-02T19:55:45.483Z,13.13
2023-04-02T19:58:23.050Z,11.87
2023-04-02T20:00:49.971Z,16.90
2023-04-02T20:03:16.799Z,14.98
2023-04-02T20:05:43.531Z,11.82
2023-04-02T20:08:13.361Z,9.23
2023-04-02T20:10:41.023Z,10.70
2023-04-02T20:13:08.594Z,11.90
2023-04-02T20:15:36.100Z,10.90
2023-04-02T20:18:02.967Z,12.15
2023-04-02T20:20:29.687Z,8.45
2023-04-02T20:22:56.643Z,13.25
2023-04-02T20:25:23.165Z,14.40
2023-04-02T20:27:49.732Z,10.10
2023-04-02T20:30:16.730Z,9.50
2023-04-02T20:32:43.426Z,9.85
2023-04-02T20:35:10.110Z,11.15
2023-04-02T20:37:36.613Z,7.90
2023-04-02T20:40:03.151Z,13.18
2023-04-02T20:42:29.651Z,8.90
2023-04-02T20:44:56.249Z,9.73
2023-04-02T20:47:23.140Z,8.65
2023-04-02T20:49:50.656Z,12.15
2023-04-02T20:52:17.396Z,6.85
2023-04-02T20:54:44.085Z,11.75
2023-04-02T20:57:10.632Z,11.10
2023-04-02T20:59:37.200Z,7.18
2023-04-02T21:02:03.749Z,9.10
2023-04-02T21:04:30.573Z,4.32
2023-04-02T21:06:57.948Z,10.50
2023-04-02T21:09:25.160Z,4.63
2023-04-02T21:11:51.731Z,8.33
2023-04-02T21:14:18.900Z,9.85
2023-04-02T21:16:46.311Z,7.28
2023-04-02T21:19:13.043Z,10.13
2023-04-02T21:21:40.844Z,8.80
2023-04-02T21:24:09.041Z,14.27
2023-04-02T21:29:02.578Z,12.80
2023-04-02T21:31:30.512Z,11.73
2023-04-02T21:33:58.112Z,10.23
2023-04-02T21:36:26.208Z,14.27
2023-04-02T21:38:54.423Z,13.40
2023-04-02T21:43:48.626Z,14.65
2023-04-02T21:46:20.369Z,7.40
2023-04-02T21:48:47.248Z,10.32
2023-04-02T21:51:18.442Z,11.05
2023-04-02T21:53:45.393Z,14.82
2023-04-02T21:56:13.092Z,11.30
2023-04-02T21:58:40.140Z,13.77
2023-04-02T22:01:11.207Z,14.38
2023-04-02T22:03:40.880Z,13.60
2023-04-02T22:06:12.300Z,11.65
2023-04-02T22:08:40.000Z,13.65
2023-04-02T22:11:06.818Z,16.30
2023-04-02T22:13:33.811Z,23.63
2023-04-02T22:16:06.792Z,20.17
2023-04-02T22:18:34.172Z,23.75
2023-04-02T22:21:02.080Z,24.48
2023-04-02T22:23:28.963Z,26.95
2023-04-02T22:25:56.740Z,17.63
2023-04-02T22:28:23.440Z,15.05
2023-04-02T22:30:49.987Z,10.10
2023-04-02T22:33:17.059Z,15.50
2023-04-02T22:35:43.695Z,17.38
2023-04-02T22:38:11.251Z,9.02
2023-04-02T22:40:38.098Z,13.40
2023-04-02T22:43:04.756Z,13.85
2023-04-02T22:45:31.260Z,9.43
2023-04-02T22:47:57.831Z,9.95
2023-04-02T22:50:24.896Z,12.13
2023-04-02T22:52:51.412Z,7.00
2023-04-02T22:55:18.130Z,6.88
2023-04-02T22:57:44.869Z,12.07
2023-04-02T23:00:13.319Z,9.70
2023-04-02T23:02:40.008Z,9.45
2023-04-02T23:05:07.939Z,7.70
2023-04-02T23:07:34.944Z,12.75
2023-04-02T23:10:02.827Z,7.57
2023-04-02T23:12:31.041Z,15.27
2023-04-02T23:14:58.075Z,11.85
2023-04-02T23:17:24.648Z,16.00
2023-04-02T23:19:51.125Z,11.10
2023-04-02T23:22:17.650Z,22.38
2023-04-02T23:24:44.165Z,15.18
2023-04-02T23:27:10.648Z,13.45
2023-04-02T23:29:37.134Z,10.90
2023-04-02T23:32:03.749Z,14.30
2023-04-02T23:34:30.592Z,11.75
2023-04-02T23:36:57.133Z,8.60
2023-04-02T23:39:23.670Z,10.65
2023-04-02T23:41:50.228Z,10.95
2023-04-02T23:44:16.730Z,9.93
2023-04-02T23:46:43.284Z,6.03
2023-04-02T23:49:11.257Z,7.78
2023-04-02T23:51:37.827Z,12.73
2023-04-02T23:54:04.603Z,16.17
2023-04-02T23:56:31.165Z,7.57
2023-04-02T23:58:57.633Z,8.02
